sensor_id;sensor_type;location;lat;lon;timestamp;temperature;humidity
16970;DHT22;8601;48.718;8.992;2022-07-23T00:00:11;23.10;80.40
16970;DHT22;8601;48.718;8.992;2022-07-23T00:02:38;23.10;81.40
16970;DHT22;8601;48.718;8.992;2022-07-23T00:05:05;23.10;81.70
16970;DHT22;8601;48.718;8.992;2022-07-23T00:07:32;23.00;81.00
16970;DHT22;8601;48.718;8.992;2022-07-23T00:10:01;23.00;82.00
16970;DHT22;8601;48.718;8.992;2022-07-23T00:12:28;22.90;82.30
16970;DHT22;8601;48.718;8.992;2022-07-23T00:15:00;22.80;82.30
16970;DHT22;8601;48.718;8.992;2022-07-23T00:17:40;22.80;83.90
16970;DHT22;8601;48.718;8.992;2022-07-23T00:20:08;22.80;83.30
16970;DHT22;8601;48.718;8.992;2022-07-23T00:22:35;22.70;83.00
16970;DHT22;8601;48.718;8.992;2022-07-23T00:25:04;22.60;82.80
16970;DHT22;8601;48.718;8.992;2022-07-23T00:27:33;22.60;83.50
16970;DHT22;8601;48.718;8.992;2022-07-23T00:30:01;22.60;83.80
16970;DHT22;8601;48.718;8.992;2022-07-23T00:32:29;22.60;86.50
16970;DHT22;8601;48.718;8.992;2022-07-23T00:34:56;22.40;86.40
16970;DHT22;8601;48.718;8.992;2022-07-23T00:37:23;22.40;88.20
16970;DHT22;8601;48.718;8.992;2022-07-23T00:39:50;22.40;89.00
16970;DHT22;8601;48.718;8.992;2022-07-23T00:42:19;22.30;90.10
16970;DHT22;8601;48.718;8.992;2022-07-23T00:44:47;22.30;87.40
16970;DHT22;8601;48.718;8.992;2022-07-23T00:47:14;22.30;90.20
16970;DHT22;8601;48.718;8.992;2022-07-23T00:49:41;22.20;90.60
16970;DHT22;8601;48.718;8.992;2022-07-23T00:52:10;22.10;88.50
16970;DHT22;8601;48.718;8.992;2022-07-23T00:54:38;22.10;88.40
16970;DHT22;8601;48.718;8.992;2022-07-23T00:57:05;22.10;88.60
16970;DHT22;8601;48.718;8.992;2022-07-23T00:59:34;22.10;88.20
16970;DHT22;8601;48.718;8.992;2022-07-23T01:02:01;22.10;87.90
16970;DHT22;8601;48.718;8.992;2022-07-23T01:04:28;22.00;87.40
16970;DHT22;8601;48.718;8.992;2022-07-23T01:06:55;22.00;88.30
16970;DHT22;8601;48.718;8.992;2022-07-23T01:09:23;22.00;88.70
16970;DHT22;8601;48.718;8.992;2022-07-23T01:11:50;22.00;90.80
16970;DHT22;8601;48.718;8.992;2022-07-23T01:14:19;21.90;90.40
16970;DHT22;8601;48.718;8.992;2022-07-23T01:16:48;21.80;90.80
16970;DHT22;8601;48.718;8.992;2022-07-23T01:19:16;21.80;90.30
16970;DHT22;8601;48.718;8.992;2022-07-23T01:21:46;21.80;89.40
16970;DHT22;8601;48.718;8.992;2022-07-23T01:24:15;21.80;89.10
16970;DHT22;8601;48.718;8.992;2022-07-23T01:26:45;21.80;89.10
16970;DHT22;8601;48.718;8.992;2022-07-23T01:29:13;21.80;90.00
16970;DHT22;8601;48.718;8.992;2022-07-23T01:31:40;21.80;90.70
16970;DHT22;8601;48.718;8.992;2022-07-23T01:34:07;21.80;91.10
16970;DHT22;8601;48.718;8.992;2022-07-23T01:36:35;21.70;91.20
16970;DHT22;8601;48.718;8.992;2022-07-23T01:39:04;21.50;92.10
16970;DHT22;8601;48.718;8.992;2022-07-23T01:41:33;21.40;93.60
16970;DHT22;8601;48.718;8.992;2022-07-23T01:44:00;21.30;94.80
16970;DHT22;8601;48.718;8.992;2022-07-23T01:46:26;21.10;95.90
16970;DHT22;8601;48.718;8.992;2022-07-23T01:48:53;21.10;95.90
16970;DHT22;8601;48.718;8.992;2022-07-23T01:51:20;21.10;96.10
16970;DHT22;8601;48.718;8.992;2022-07-23T01:53:47;21.10;94.70
16970;DHT22;8601;48.718;8.992;2022-07-23T01:56:14;21.10;94.80
16970;DHT22;8601;48.718;8.992;2022-07-23T01:58:43;21.10;94.60
16970;DHT22;8601;48.718;8.992;2022-07-23T02:01:10;21.00;95.10
16970;DHT22;8601;48.718;8.992;2022-07-23T02:03:38;21.10;94.40
16970;DHT22;8601;48.718;8.992;2022-07-23T02:06:05;21.00;97.10
16970;DHT22;8601;48.718;8.992;2022-07-23T02:08:32;20.90;98.20
16970;DHT22;8601;48.718;8.992;2022-07-23T02:10:59;20.70;98.40
16970;DHT22;8601;48.718;8.992;2022-07-23T02:13:26;20.60;98.00
16970;DHT22;8601;48.718;8.992;2022-07-23T02:15:56;20.70;98.70
16970;DHT22;8601;48.718;8.992;2022-07-23T02:18:23;20.60;98.30
16970;DHT22;8601;48.718;8.992;2022-07-23T02:20:50;20.70;97.40
16970;DHT22;8601;48.718;8.992;2022-07-23T02:23:17;20.70;97.00
16970;DHT22;8601;48.718;8.992;2022-07-23T02:25:44;20.80;97.30
16970;DHT22;8601;48.718;8.992;2022-07-23T02:28:11;20.80;97.20
16970;DHT22;8601;48.718;8.992;2022-07-23T02:30:38;20.70;96.40
16970;DHT22;8601;48.718;8.992;2022-07-23T02:33:08;20.80;96.90
16970;DHT22;8601;48.718;8.992;2022-07-23T02:35:34;20.80;96.90
16970;DHT22;8601;48.718;8.992;2022-07-23T02:38:01;20.80;97.50
16970;DHT22;8601;48.718;8.992;2022-07-23T02:40:28;20.70;97.50
16970;DHT22;8601;48.718;8.992;2022-07-23T02:42:55;20.70;96.70
16970;DHT22;8601;48.718;8.992;2022-07-23T02:45:22;20.80;96.80
16970;DHT22;8601;48.718;8.992;2022-07-23T02:47:49;20.70;96.50
16970;DHT22;8601;48.718;8.992;2022-07-23T02:50:25;20.70;96.60
16970;DHT22;8601;48.718;8.992;2022-07-23T02:52:52;20.60;97.50
16970;DHT22;8601;48.718;8.992;2022-07-23T02:55:19;20.60;98.10
16970;DHT22;8601;48.718;8.992;2022-07-23T02:57:46;20.50;98.90
16970;DHT22;8601;48.718;8.992;2022-07-23T03:00:13;20.50;99.00
16970;DHT22;8601;48.718;8.992;2022-07-23T03:02:40;20.50;98.80
16970;DHT22;8601;48.718;8.992;2022-07-23T03:05:09;20.50;98.80
16970;DHT22;8601;48.718;8.992;2022-07-23T03:07:37;20.40;98.70
16970;DHT22;8601;48.718;8.992;2022-07-23T03:10:04;20.50;98.40
16970;DHT22;8601;48.718;8.992;2022-07-23T03:12:32;20.50;97.80
16970;DHT22;8601;48.718;8.992;2022-07-23T03:14:59;20.50;97.50
16970;DHT22;8601;48.718;8.992;2022-07-23T03:17:26;20.50;97.50
16970;DHT22;8601;48.718;8.992;2022-07-23T03:19:53;20.60;97.80
16970;DHT22;8601;48.718;8.992;2022-07-23T03:22:19;20.60;98.30
16970;DHT22;8601;48.718;8.992;2022-07-23T03:24:48;20.50;98.90
16970;DHT22;8601;48.718;8.992;2022-07-23T03:27:20;20.40;99.90
16970;DHT22;8601;48.718;8.992;2022-07-23T03:29:48;20.40;99.90
16970;DHT22;8601;48.718;8.992;2022-07-23T03:32:15;20.40;99.90
16970;DHT22;8601;48.718;8.992;2022-07-23T03:34:42;20.30;99.90
16970;DHT22;8601;48.718;8.992;2022-07-23T03:37:09;20.30;99.90
16970;DHT22;8601;48.718;8.992;2022-07-23T03:39:36;20.20;99.90
16970;DHT22;8601;48.718;8.992;2022-07-23T03:42:05;20.20;99.90
16970;DHT22;8601;48.718;8.992;2022-07-23T03:44:31;20.20;99.90
16970;DHT22;8601;48.718;8.992;2022-07-23T03:46:59;20.20;99.90
16970;DHT22;8601;48.718;8.992;2022-07-23T03:49:26;20.20;99.90
16970;DHT22;8601;48.718;8.992;2022-07-23T03:51:52;20.10;99.90
16970;DHT22;8601;48.718;8.992;2022-07-23T03:54:20;20.10;99.90
16970;DHT22;8601;48.718;8.992;2022-07-23T03:56:47;20.10;99.90
16970;DHT22;8601;48.718;8.992;2022-07-23T03:59:15;20.10;99.90
16970;DHT22;8601;48.718;8.992;2022-07-23T04:01:42;20.10;99.90
16970;DHT22;8601;48.718;8.992;2022-07-23T04:04:09;20.00;99.90
16970;DHT22;8601;48.718;8.992;2022-07-23T04:06:36;20.10;99.90
16970;DHT22;8601;48.718;8.992;2022-07-23T04:09:03;20.00;99.90
16970;DHT22;8601;48.718;8.992;2022-07-23T04:11:31;20.10;99.90
16970;DHT22;8601;48.718;8.992;2022-07-23T04:13:57;20.10;99.90
16970;DHT22;8601;48.718;8.992;2022-07-23T04:16:26;20.10;99.90
16970;DHT22;8601;48.718;8.992;2022-07-23T04:18:54;20.10;99.90
16970;DHT22;8601;48.718;8.992;2022-07-23T04:21:21;20.10;99.90
16970;DHT22;8601;48.718;8.992;2022-07-23T04:23:48;20.20;99.90
16970;DHT22;8601;48.718;8.992;2022-07-23T04:26:15;20.20;99.90
16970;DHT22;8601;48.718;8.992;2022-07-23T04:28:42;20.20;99.90
16970;DHT22;8601;48.718;8.992;2022-07-23T04:31:11;20.20;99.90
16970;DHT22;8601;48.718;8.992;2022-07-23T04:33:43;20.20;99.90
16970;DHT22;8601;48.718;8.992;2022-07-23T04:36:10;20.30;99.90
16970;DHT22;8601;48.718;8.992;2022-07-23T04:38:37;20.20;99.90
16970;DHT22;8601;48.718;8.992;2022-07-23T04:41:04;20.20;99.90
16970;DHT22;8601;48.718;8.992;2022-07-23T04:43:32;20.30;99.90
16970;DHT22;8601;48.718;8.992;2022-07-23T04:45:58;20.30;99.90
16970;DHT22;8601;48.718;8.992;2022-07-23T04:48:25;20.30;99.90
16970;DHT22;8601;48.718;8.992;2022-07-23T04:50:55;20.40;99.90
16970;DHT22;8601;48.718;8.992;2022-07-23T04:53:22;20.40;99.90
16970;DHT22;8601;48.718;8.992;2022-07-23T04:55:49;20.40;99.90
16970;DHT22;8601;48.718;8.992;2022-07-23T04:58:18;20.50;99.90
16970;DHT22;8601;48.718;8.992;2022-07-23T05:00:46;20.60;99.90
16970;DHT22;8601;48.718;8.992;2022-07-23T05:03:13;20.60;99.90
16970;DHT22;8601;48.718;8.992;2022-07-23T05:05:40;20.70;99.90
16970;DHT22;8601;48.718;8.992;2022-07-23T05:08:08;20.70;99.90
16970;DHT22;8601;48.718;8.992;2022-07-23T05:10:35;20.80;99.90
16970;DHT22;8601;48.718;8.992;2022-07-23T05:13:02;20.80;99.90
16970;DHT22;8601;48.718;8.992;2022-07-23T05:15:29;20.80;99.90
16970;DHT22;8601;48.718;8.992;2022-07-23T05:17:59;20.90;99.90
16970;DHT22;8601;48.718;8.992;2022-07-23T05:20:26;20.90;99.90
16970;DHT22;8601;48.718;8.992;2022-07-23T05:22:52;20.90;99.90
16970;DHT22;8601;48.718;8.992;2022-07-23T05:25:21;20.90;99.90
16970;DHT22;8601;48.718;8.992;2022-07-23T05:27:48;21.00;99.90
16970;DHT22;8601;48.718;8.992;2022-07-23T05:30:15;21.00;99.90
16970;DHT22;8601;48.718;8.992;2022-07-23T05:32:42;21.00;99.90
16970;DHT22;8601;48.718;8.992;2022-07-23T05:35:09;21.10;99.90
16970;DHT22;8601;48.718;8.992;2022-07-23T05:37:36;21.20;99.90
16970;DHT22;8601;48.718;8.992;2022-07-23T05:40:04;21.10;99.70
16970;DHT22;8601;48.718;8.992;2022-07-23T05:42:34;21.20;99.70
16970;DHT22;8601;48.718;8.992;2022-07-23T05:45:01;21.20;99.90
16970;DHT22;8601;48.718;8.992;2022-07-23T05:47:28;21.20;99.50
16970;DHT22;8601;48.718;8.992;2022-07-23T05:49:56;21.20;99.90
16970;DHT22;8601;48.718;8.992;2022-07-23T05:52:22;21.20;99.20
16970;DHT22;8601;48.718;8.992;2022-07-23T05:54:50;21.20;99.00
16970;DHT22;8601;48.718;8.992;2022-07-23T05:57:16;21.50;99.40
16970;DHT22;8601;48.718;8.992;2022-07-23T05:59:45;21.70;97.60
16970;DHT22;8601;48.718;8.992;2022-07-23T06:02:12;21.90;97.00
16970;DHT22;8601;48.718;8.992;2022-07-23T06:04:39;22.10;95.20
16970;DHT22;8601;48.718;8.992;2022-07-23T06:07:06;21.90;95.80
16970;DHT22;8601;48.718;8.992;2022-07-23T06:09:33;21.90;96.00
16970;DHT22;8601;48.718;8.992;2022-07-23T06:12:00;21.90;95.60
16970;DHT22;8601;48.718;8.992;2022-07-23T06:14:28;21.90;95.40
16970;DHT22;8601;48.718;8.992;2022-07-23T06:16:56;22.00;95.20
16970;DHT22;8601;48.718;8.992;2022-07-23T06:19:24;21.90;94.60
16970;DHT22;8601;48.718;8.992;2022-07-23T06:21:51;22.00;95.40
16970;DHT22;8601;48.718;8.992;2022-07-23T06:24:18;22.20;95.20
16970;DHT22;8601;48.718;8.992;2022-07-23T06:26:46;22.40;95.90
16970;DHT22;8601;48.718;8.992;2022-07-23T06:29:13;22.40;97.40
16970;DHT22;8601;48.718;8.992;2022-07-23T06:31:40;22.40;97.30
16970;DHT22;8601;48.718;8.992;2022-07-23T06:34:09;22.40;96.80
16970;DHT22;8601;48.718;8.992;2022-07-23T06:36:36;22.50;97.60
16970;DHT22;8601;48.718;8.992;2022-07-23T06:39:03;22.50;98.10
16970;DHT22;8601;48.718;8.992;2022-07-23T06:41:30;22.50;96.40
16970;DHT22;8601;48.718;8.992;2022-07-23T06:43:57;22.30;96.90
16970;DHT22;8601;48.718;8.992;2022-07-23T06:46:23;22.40;95.70
16970;DHT22;8601;48.718;8.992;2022-07-23T06:48:50;22.40;96.10
16970;DHT22;8601;48.718;8.992;2022-07-23T06:51:19;22.50;96.70
16970;DHT22;8601;48.718;8.992;2022-07-23T06:53:46;22.50;96.80
16970;DHT22;8601;48.718;8.992;2022-07-23T06:56:13;22.50;95.60
16970;DHT22;8601;48.718;8.992;2022-07-23T06:58:40;22.60;95.80
16970;DHT22;8601;48.718;8.992;2022-07-23T07:01:08;22.60;95.20
16970;DHT22;8601;48.718;8.992;2022-07-23T07:03:34;22.70;94.90
16970;DHT22;8601;48.718;8.992;2022-07-23T07:06:02;22.70;94.70
16970;DHT22;8601;48.718;8.992;2022-07-23T07:08:30;22.60;96.00
16970;DHT22;8601;48.718;8.992;2022-07-23T07:10:57;22.50;95.50
16970;DHT22;8601;48.718;8.992;2022-07-23T07:13:24;22.30;95.40
16970;DHT22;8601;48.718;8.992;2022-07-23T07:15:51;22.20;95.00
16970;DHT22;8601;48.718;8.992;2022-07-23T07:18:20;22.10;94.20
16970;DHT22;8601;48.718;8.992;2022-07-23T07:20:48;22.10;94.60
16970;DHT22;8601;48.718;8.992;2022-07-23T07:23:15;22.10;95.80
16970;DHT22;8601;48.718;8.992;2022-07-23T07:25:43;22.00;96.10
16970;DHT22;8601;48.718;8.992;2022-07-23T07:28:10;22.00;96.50
16970;DHT22;8601;48.718;8.992;2022-07-23T07:30:37;22.00;96.70
16970;DHT22;8601;48.718;8.992;2022-07-23T07:33:04;22.00;96.30
16970;DHT22;8601;48.718;8.992;2022-07-23T07:35:31;22.00;96.40
16970;DHT22;8601;48.718;8.992;2022-07-23T07:37:58;22.10;96.10
16970;DHT22;8601;48.718;8.992;2022-07-23T07:40:25;22.20;97.90
16970;DHT22;8601;48.718;8.992;2022-07-23T07:42:55;22.20;96.60
16970;DHT22;8601;48.718;8.992;2022-07-23T07:45:23;22.40;96.30
16970;DHT22;8601;48.718;8.992;2022-07-23T07:47:51;22.70;94.50
16970;DHT22;8601;48.718;8.992;2022-07-23T07:50:18;22.70;93.10
16970;DHT22;8601;48.718;8.992;2022-07-23T07:52:45;22.60;93.10
16970;DHT22;8601;48.718;8.992;2022-07-23T07:55:13;22.70;93.40
16970;DHT22;8601;48.718;8.992;2022-07-23T07:57:40;22.70;93.20
16970;DHT22;8601;48.718;8.992;2022-07-23T08:00:10;22.80;92.70
16970;DHT22;8601;48.718;8.992;2022-07-23T08:02:41;22.80;93.20
16970;DHT22;8601;48.718;8.992;2022-07-23T08:05:08;22.70;93.20
16970;DHT22;8601;48.718;8.992;2022-07-23T08:07:36;22.60;93.50
16970;DHT22;8601;48.718;8.992;2022-07-23T08:10:05;22.60;93.60
16970;DHT22;8601;48.718;8.992;2022-07-23T08:12:40;22.40;93.10
16970;DHT22;8601;48.718;8.992;2022-07-23T08:15:09;22.30;93.50
16970;DHT22;8601;48.718;8.992;2022-07-23T08:17:36;22.30;94.40
16970;DHT22;8601;48.718;8.992;2022-07-23T08:20:04;22.30;94.20
16970;DHT22;8601;48.718;8.992;2022-07-23T08:22:46;22.30;94.30
16970;DHT22;8601;48.718;8.992;2022-07-23T08:25:13;22.30;95.40
16970;DHT22;8601;48.718;8.992;2022-07-23T08:27:40;22.50;93.40
16970;DHT22;8601;48.718;8.992;2022-07-23T08:30:10;22.40;92.00
16970;DHT22;8601;48.718;8.992;2022-07-23T08:32:51;22.50;92.00
16970;DHT22;8601;48.718;8.992;2022-07-23T08:35:21;22.70;92.60
16970;DHT22;8601;48.718;8.992;2022-07-23T08:37:48;22.80;92.20
16970;DHT22;8601;48.718;8.992;2022-07-23T08:40:15;22.90;90.60
16970;DHT22;8601;48.718;8.992;2022-07-23T08:42:42;23.10;91.60
16970;DHT22;8601;48.718;8.992;2022-07-23T08:45:11;23.30;91.80
16970;DHT22;8601;48.718;8.992;2022-07-23T08:47:40;23.40;87.50
16970;DHT22;8601;48.718;8.992;2022-07-23T08:50:07;23.40;89.10
16970;DHT22;8601;48.718;8.992;2022-07-23T08:52:36;23.30;87.60
16970;DHT22;8601;48.718;8.992;2022-07-23T08:55:05;23.30;86.00
16970;DHT22;8601;48.718;8.992;2022-07-23T08:57:32;23.40;85.40
16970;DHT22;8601;48.718;8.992;2022-07-23T08:59:59;23.50;84.90
16970;DHT22;8601;48.718;8.992;2022-07-23T09:02:28;23.60;84.10
16970;DHT22;8601;48.718;8.992;2022-07-23T09:04:54;23.70;80.60
16970;DHT22;8601;48.718;8.992;2022-07-23T09:07:21;24.00;84.70
16970;DHT22;8601;48.718;8.992;2022-07-23T09:10:05;24.30;82.20
16970;DHT22;8601;48.718;8.992;2022-07-23T09:12:32;24.60;82.50
16970;DHT22;8601;48.718;8.992;2022-07-23T09:15:04;24.80;84.20
16970;DHT22;8601;48.718;8.992;2022-07-23T09:17:38;25.00;75.70
16970;DHT22;8601;48.718;8.992;2022-07-23T09:20:10;25.00;78.20
16970;DHT22;8601;48.718;8.992;2022-07-23T09:22:37;25.00;74.30
16970;DHT22;8601;48.718;8.992;2022-07-23T09:25:07;25.10;77.70
16970;DHT22;8601;48.718;8.992;2022-07-23T09:27:53;25.40;77.80
16970;DHT22;8601;48.718;8.992;2022-07-23T09:30:22;25.30;72.70
16970;DHT22;8601;48.718;8.992;2022-07-23T09:33:07;25.40;74.10
16970;DHT22;8601;48.718;8.992;2022-07-23T09:35:49;25.40;72.90
16970;DHT22;8601;48.718;8.992;2022-07-23T09:38:17;25.50;72.70
16970;DHT22;8601;48.718;8.992;2022-07-23T09:40:46;25.70;73.60
16970;DHT22;8601;48.718;8.992;2022-07-23T09:43:26;25.80;72.40
16970;DHT22;8601;48.718;8.992;2022-07-23T09:46:18;26.10;73.10
16970;DHT22;8601;48.718;8.992;2022-07-23T09:48:47;26.30;68.70
16970;DHT22;8601;48.718;8.992;2022-07-23T09:51:14;26.50;71.10
16970;DHT22;8601;48.718;8.992;2022-07-23T09:53:43;26.70;71.30
16970;DHT22;8601;48.718;8.992;2022-07-23T09:56:12;26.90;72.60
16970;DHT22;8601;48.718;8.992;2022-07-23T09:58:40;27.10;68.00
16970;DHT22;8601;48.718;8.992;2022-07-23T10:01:13;27.40;68.30
16970;DHT22;8601;48.718;8.992;2022-07-23T10:03:40;27.50;68.60
16970;DHT22;8601;48.718;8.992;2022-07-23T10:06:10;27.50;67.40
16970;DHT22;8601;48.718;8.992;2022-07-23T10:08:40;27.10;62.70
16970;DHT22;8601;48.718;8.992;2022-07-23T10:11:08;26.90;65.30
16970;DHT22;8601;48.718;8.992;2022-07-23T10:13:36;27.00;63.40
16970;DHT22;8601;48.718;8.992;2022-07-23T10:16:29;26.90;65.90
16970;DHT22;8601;48.718;8.992;2022-07-23T10:18:56;27.00;66.40
16970;DHT22;8601;48.718;8.992;2022-07-23T10:21:40;27.40;70.00
16970;DHT22;8601;48.718;8.992;2022-07-23T10:24:16;27.60;69.90
16970;DHT22;8601;48.718;8.992;2022-07-23T10:26:53;27.50;65.70
16970;DHT22;8601;48.718;8.992;2022-07-23T10:29:29;27.10;63.40
16970;DHT22;8601;48.718;8.992;2022-07-23T10:32:02;27.30;66.00
16970;DHT22;8601;48.718;8.992;2022-07-23T10:34:44;27.70;65.70
16970;DHT22;8601;48.718;8.992;2022-07-23T10:37:16;27.90;62.10
16970;DHT22;8601;48.718;8.992;2022-07-23T10:39:46;28.20;60.10
16970;DHT22;8601;48.718;8.992;2022-07-23T10:42:15;27.90;61.00
16970;DHT22;8601;48.718;8.992;2022-07-23T10:44:44;28.30;61.80
16970;DHT22;8601;48.718;8.992;2022-07-23T10:47:21;28.60;62.20
16970;DHT22;8601;48.718;8.992;2022-07-23T10:50:18;28.50;58.50
16970;DHT22;8601;48.718;8.992;2022-07-23T10:53:11;28.20;59.80
16970;DHT22;8601;48.718;8.992;2022-07-23T10:55:44;28.30;64.80
16970;DHT22;8601;48.718;8.992;2022-07-23T10:58:17;28.50;62.80
16970;DHT22;8601;48.718;8.992;2022-07-23T11:00:45;28.40;61.60
16970;DHT22;8601;48.718;8.992;2022-07-23T11:03:36;28.20;59.20
16970;DHT22;8601;48.718;8.992;2022-07-23T11:06:05;28.20;62.20
16970;DHT22;8601;48.718;8.992;2022-07-23T11:08:34;28.30;58.60
16970;DHT22;8601;48.718;8.992;2022-07-23T11:11:09;28.20;59.10
16970;DHT22;8601;48.718;8.992;2022-07-23T11:13:42;28.60;59.40
16970;DHT22;8601;48.718;8.992;2022-07-23T11:16:24;28.70;60.50
16970;DHT22;8601;48.718;8.992;2022-07-23T11:19:16;28.80;58.40
16970;DHT22;8601;48.718;8.992;2022-07-23T11:21:50;29.10;59.70
16970;DHT22;8601;48.718;8.992;2022-07-23T11:24:23;29.30;58.40
16970;DHT22;8601;48.718;8.992;2022-07-23T11:27:02;29.10;56.50
16970;DHT22;8601;48.718;8.992;2022-07-23T11:29:48;28.80;55.90
16970;DHT22;8601;48.718;8.992;2022-07-23T11:32:36;29.00;58.60
16970;DHT22;8601;48.718;8.992;2022-07-23T11:35:25;28.70;59.10
16970;DHT22;8601;48.718;8.992;2022-07-23T11:37:54;28.80;57.00
16970;DHT22;8601;48.718;8.992;2022-07-23T11:40:25;29.10;58.10
16970;DHT22;8601;48.718;8.992;2022-07-23T11:42:56;29.20;54.50
16970;DHT22;8601;48.718;8.992;2022-07-23T11:45:23;29.50;57.60
16970;DHT22;8601;48.718;8.992;2022-07-23T11:47:51;29.70;57.10
16970;DHT22;8601;48.718;8.992;2022-07-23T11:50:18;29.60;56.50
16970;DHT22;8601;48.718;8.992;2022-07-23T11:52:45;29.50;56.40
16970;DHT22;8601;48.718;8.992;2022-07-23T11:55:12;29.60;57.10
16970;DHT22;8601;48.718;8.992;2022-07-23T11:57:43;29.60;56.30
16970;DHT22;8601;48.718;8.992;2022-07-23T12:00:12;29.60;55.30
16970;DHT22;8601;48.718;8.992;2022-07-23T12:02:40;29.70;56.60
16970;DHT22;8601;48.718;8.992;2022-07-23T12:05:11;29.80;54.80
16970;DHT22;8601;48.718;8.992;2022-07-23T12:07:41;29.90;57.40
16970;DHT22;8601;48.718;8.992;2022-07-23T12:10:12;29.90;54.80
16970;DHT22;8601;48.718;8.992;2022-07-23T12:12:40;29.80;55.00
16970;DHT22;8601;48.718;8.992;2022-07-23T12:15:09;29.30;55.60
16970;DHT22;8601;48.718;8.992;2022-07-23T12:17:39;29.30;55.40
16970;DHT22;8601;48.718;8.992;2022-07-23T12:20:09;29.10;55.50
16970;DHT22;8601;48.718;8.992;2022-07-23T12:22:38;29.10;56.40
16970;DHT22;8601;48.718;8.992;2022-07-23T12:25:08;28.70;56.20
16970;DHT22;8601;48.718;8.992;2022-07-23T12:27:36;28.90;56.90
16970;DHT22;8601;48.718;8.992;2022-07-23T12:30:19;29.00;58.20
16970;DHT22;8601;48.718;8.992;2022-07-23T12:32:49;28.90;57.60
16970;DHT22;8601;48.718;8.992;2022-07-23T12:35:16;28.70;59.00
16970;DHT22;8601;48.718;8.992;2022-07-23T12:37:45;28.60;58.70
16970;DHT22;8601;48.718;8.992;2022-07-23T12:40:20;28.40;60.50
16970;DHT22;8601;48.718;8.992;2022-07-23T12:42:48;28.70;59.10
16970;DHT22;8601;48.718;8.992;2022-07-23T12:45:16;29.00;59.50
16970;DHT22;8601;48.718;8.992;2022-07-23T12:48:05;29.10;58.70
16970;DHT22;8601;48.718;8.992;2022-07-23T12:50:39;29.00;56.80
16970;DHT22;8601;48.718;8.992;2022-07-23T12:53:09;28.90;57.10
16970;DHT22;8601;48.718;8.992;2022-07-23T12:55:37;28.80;59.10
16970;DHT22;8601;48.718;8.992;2022-07-23T12:58:10;28.60;57.20
16970;DHT22;8601;48.718;8.992;2022-07-23T13:01:01;28.80;57.70
16970;DHT22;8601;48.718;8.992;2022-07-23T13:03:36;29.00;58.70
16970;DHT22;8601;48.718;8.992;2022-07-23T13:06:05;29.20;57.20
16970;DHT22;8601;48.718;8.992;2022-07-23T13:08:33;29.30;55.90
16970;DHT22;8601;48.718;8.992;2022-07-23T13:11:01;29.10;55.90
16970;DHT22;8601;48.718;8.992;2022-07-23T13:13:31;28.90;55.90
16970;DHT22;8601;48.718;8.992;2022-07-23T13:15:59;28.90;56.60
16970;DHT22;8601;48.718;8.992;2022-07-23T13:18:28;28.90;56.50
16970;DHT22;8601;48.718;8.992;2022-07-23T13:20:56;29.10;57.30
16970;DHT22;8601;48.718;8.992;2022-07-23T13:23:24;29.00;57.40
16970;DHT22;8601;48.718;8.992;2022-07-23T13:25:51;28.60;56.30
16970;DHT22;8601;48.718;8.992;2022-07-23T13:28:20;28.80;58.10
16970;DHT22;8601;48.718;8.992;2022-07-23T13:30:48;28.80;58.10
16970;DHT22;8601;48.718;8.992;2022-07-23T13:33:17;28.70;56.50
16970;DHT22;8601;48.718;8.992;2022-07-23T13:35:44;28.50;58.60
16970;DHT22;8601;48.718;8.992;2022-07-23T13:38:12;28.40;58.40
16970;DHT22;8601;48.718;8.992;2022-07-23T13:40:42;28.20;59.20
16970;DHT22;8601;48.718;8.992;2022-07-23T13:43:09;28.10;58.30
16970;DHT22;8601;48.718;8.992;2022-07-23T13:45:37;28.00;59.00
16970;DHT22;8601;48.718;8.992;2022-07-23T13:48:05;27.90;59.80
16970;DHT22;8601;48.718;8.992;2022-07-23T13:50:33;27.90;58.70
16970;DHT22;8601;48.718;8.992;2022-07-23T13:53:02;27.80;59.30
16970;DHT22;8601;48.718;8.992;2022-07-23T13:55:30;27.90;59.50
16970;DHT22;8601;48.718;8.992;2022-07-23T13:57:58;27.80;58.90
16970;DHT22;8601;48.718;8.992;2022-07-23T14:00:26;27.80;58.40
16970;DHT22;8601;48.718;8.992;2022-07-23T14:02:54;27.80;59.20
16970;DHT22;8601;48.718;8.992;2022-07-23T14:05:21;28.00;61.00
16970;DHT22;8601;48.718;8.992;2022-07-23T14:07:48;28.30;58.10
16970;DHT22;8601;48.718;8.992;2022-07-23T14:10:17;28.40;57.30
16970;DHT22;8601;48.718;8.992;2022-07-23T14:12:47;28.70;57.30
16970;DHT22;8601;48.718;8.992;2022-07-23T14:15:14;28.90;55.80
16970;DHT22;8601;48.718;8.992;2022-07-23T14:17:44;28.90;55.70
16970;DHT22;8601;48.718;8.992;2022-07-23T14:20:12;28.70;56.40
16970;DHT22;8601;48.718;8.992;2022-07-23T14:22:39;28.30;56.30
16970;DHT22;8601;48.718;8.992;2022-07-23T14:25:08;28.10;57.60
16970;DHT22;8601;48.718;8.992;2022-07-23T14:27:35;28.20;56.80
16970;DHT22;8601;48.718;8.992;2022-07-23T14:30:06;28.50;56.80
16970;DHT22;8601;48.718;8.992;2022-07-23T14:32:33;28.60;57.10
16970;DHT22;8601;48.718;8.992;2022-07-23T14:35:00;28.70;56.90
16970;DHT22;8601;48.718;8.992;2022-07-23T14:37:26;28.60;55.20
16970;DHT22;8601;48.718;8.992;2022-07-23T14:39:54;28.80;55.60
16970;DHT22;8601;48.718;8.992;2022-07-23T14:42:21;29.00;55.20
16970;DHT22;8601;48.718;8.992;2022-07-23T14:44:48;29.00;55.40
16970;DHT22;8601;48.718;8.992;2022-07-23T14:47:16;29.10;54.10
16970;DHT22;8601;48.718;8.992;2022-07-23T14:49:43;29.30;54.20
16970;DHT22;8601;48.718;8.992;2022-07-23T14:52:10;29.30;54.60
16970;DHT22;8601;48.718;8.992;2022-07-23T14:54:37;29.10;53.60
16970;DHT22;8601;48.718;8.992;2022-07-23T14:57:04;29.20;56.80
16970;DHT22;8601;48.718;8.992;2022-07-23T14:59:33;29.40;53.50
16970;DHT22;8601;48.718;8.992;2022-07-23T15:02:00;29.60;54.50
16970;DHT22;8601;48.718;8.992;2022-07-23T15:04:28;29.70;53.80
16970;DHT22;8601;48.718;8.992;2022-07-23T15:06:55;29.20;53.50
16970;DHT22;8601;48.718;8.992;2022-07-23T15:09:23;28.90;53.30
16970;DHT22;8601;48.718;8.992;2022-07-23T15:11:50;28.90;53.10
16970;DHT22;8601;48.718;8.992;2022-07-23T15:14:17;29.00;55.00
16970;DHT22;8601;48.718;8.992;2022-07-23T15:16:44;29.20;53.60
16970;DHT22;8601;48.718;8.992;2022-07-23T15:19:11;29.30;54.00
16970;DHT22;8601;48.718;8.992;2022-07-23T15:21:39;29.50;53.00
16970;DHT22;8601;48.718;8.992;2022-07-23T15:24:07;29.40;53.60
16970;DHT22;8601;48.718;8.992;2022-07-23T15:26:34;29.10;54.60
16970;DHT22;8601;48.718;8.992;2022-07-23T15:29:02;28.80;54.30
16970;DHT22;8601;48.718;8.992;2022-07-23T15:31:31;28.40;54.60
16970;DHT22;8601;48.718;8.992;2022-07-23T15:33:58;28.20;55.80
16970;DHT22;8601;48.718;8.992;2022-07-23T15:36:25;28.50;56.20
16970;DHT22;8601;48.718;8.992;2022-07-23T15:38:53;28.70;56.00
16970;DHT22;8601;48.718;8.992;2022-07-23T15:41:20;29.00;55.40
16970;DHT22;8601;48.718;8.992;2022-07-23T15:43:48;29.20;56.20
16970;DHT22;8601;48.718;8.992;2022-07-23T15:46:16;29.10;55.20
16970;DHT22;8601;48.718;8.992;2022-07-23T15:48:44;29.10;55.00
16970;DHT22;8601;48.718;8.992;2022-07-23T15:51:11;29.00;56.70
16970;DHT22;8601;48.718;8.992;2022-07-23T15:53:39;28.70;55.20
16970;DHT22;8601;48.718;8.992;2022-07-23T15:56:08;28.90;56.60